sensor_id;sensor_type;location;lat;lon;timestamp;temperature;humidity
42913;DHT22;50720;54.324;18.558;2023-04-03T00:01:45;2.40;99.90
42913;DHT22;50720;54.324;18.558;2023-04-03T00:04:15;2.30;99.90
42913;DHT22;50720;54.324;18.558;2023-04-03T00:06:44;2.30;99.90
42913;DHT22;50720;54.324;18.558;2023-04-03T00:09:17;2.30;99.90
42913;DHT22;50720;54.324;18.558;2023-04-03T00:11:46;2.40;99.90
42913;DHT22;50720;54.324;18.558;2023-04-03T00:14:16;2.40;99.90
42913;DHT22;50720;54.324;18.558;2023-04-03T00:16:46;2.30;99.90
42913;DHT22;50720;54.324;18.558;2023-04-03T00:19:16;2.30;99.90
42913;DHT22;50720;54.324;18.558;2023-04-03T00:21:45;2.30;99.90
42913;DHT22;50720;54.324;18.558;2023-04-03T00:24:16;2.30;99.90
42913;DHT22;50720;54.324;18.558;2023-04-03T00:26:46;2.30;99.90
42913;DHT22;50720;54.324;18.558;2023-04-03T00:29:16;2.40;99.90
42913;DHT22;50720;54.324;18.558;2023-04-03T00:31:45;2.40;99.90
42913;DHT22;50720;54.324;18.558;2023-04-03T00:34:15;2.40;99.90
42913;DHT22;50720;54.324;18.558;2023-04-03T00:36:44;2.30;99.90
42913;DHT22;50720;54.324;18.558;2023-04-03T00:39:16;2.30;99.90
42913;DHT22;50720;54.324;18.558;2023-04-03T00:41:45;2.30;99.90
42913;DHT22;50720;54.324;18.558;2023-04-03T00:44:23;2.30;99.90
42913;DHT22;50720;54.324;18.558;2023-04-03T00:47:15;2.30;99.90
42913;DHT22;50720;54.324;18.558;2023-04-03T00:49:46;2.30;99.90
42913;DHT22;50720;54.324;18.558;2023-04-03T00:52:16;2.30;99.90
42913;DHT22;50720;54.324;18.558;2023-04-03T00:54:50;2.20;99.90
42913;DHT22;50720;54.324;18.558;2023-04-03T00:57:22;2.20;99.90
42913;DHT22;50720;54.324;18.558;2023-04-03T00:59:57;2.20;99.90
42913;DHT22;50720;54.324;18.558;2023-04-03T01:02:29;2.20;99.90
42913;DHT22;50720;54.324;18.558;2023-04-03T01:04:58;2.20;99.90
42913;DHT22;50720;54.324;18.558;2023-04-03T01:07:29;2.20;99.90
42913;DHT22;50720;54.324;18.558;2023-04-03T01:10:06;2.20;99.90
42913;DHT22;50720;54.324;18.558;2023-04-03T01:12:38;2.20;99.90
42913;DHT22;50720;54.324;18.558;2023-04-03T01:15:16;2.20;99.90
42913;DHT22;50720;54.324;18.558;2023-04-03T01:17:47;2.30;99.90
42913;DHT22;50720;54.324;18.558;2023-04-03T01:23:48;2.20;99.90
42913;DHT22;50720;54.324;18.558;2023-04-03T01:26:24;2.20;99.90
42913;DHT22;50720;54.324;18.558;2023-04-03T01:28:55;2.10;99.90
42913;DHT22;50720;54.324;18.558;2023-04-03T01:31:27;2.10;99.90
42913;DHT22;50720;54.324;18.558;2023-04-03T01:33:58;2.10;99.90
42913;DHT22;50720;54.324;18.558;2023-04-03T01:36:30;2.00;99.90
42913;DHT22;50720;54.324;18.558;2023-04-03T01:39:00;2.00;99.90
42913;DHT22;50720;54.324;18.558;2023-04-03T01:41:31;1.90;99.90
42913;DHT22;50720;54.324;18.558;2023-04-03T01:44:00;1.90;99.90
42913;DHT22;50720;54.324;18.558;2023-04-03T01:46:32;1.90;99.90
42913;DHT22;50720;54.324;18.558;2023-04-03T01:49:03;1.80;99.90
42913;DHT22;50720;54.324;18.558;2023-04-03T01:51:33;1.90;99.90
42913;DHT22;50720;54.324;18.558;2023-04-03T01:54:03;1.90;99.90
42913;DHT22;50720;54.324;18.558;2023-04-03T01:56:32;1.80;99.90
42913;DHT22;50720;54.324;18.558;2023-04-03T01:59:02;1.90;99.90
42913;DHT22;50720;54.324;18.558;2023-04-03T02:01:31;1.80;99.90
42913;DHT22;50720;54.324;18.558;2023-04-03T02:04:03;1.90;99.90
42913;DHT22;50720;54.324;18.558;2023-04-03T02:06:32;1.90;99.90
42913;DHT22;50720;54.324;18.558;2023-04-03T02:09:03;1.90;99.90
42913;DHT22;50720;54.324;18.558;2023-04-03T02:11:33;1.90;99.90
42913;DHT22;50720;54.324;18.558;2023-04-03T02:14:02;1.90;99.90
42913;DHT22;50720;54.324;18.558;2023-04-03T02:16:32;1.90;99.90
42913;DHT22;50720;54.324;18.558;2023-04-03T02:19:03;1.80;99.90
42913;DHT22;50720;54.324;18.558;2023-04-03T02:21:33;3.50;99.90
42913;DHT22;50720;54.324;18.558;2023-04-03T02:24:02;1.80;99.90
42913;DHT22;50720;54.324;18.558;2023-04-03T02:26:32;1.80;99.90
42913;DHT22;50720;54.324;18.558;2023-04-03T02:29:01;1.80;99.90
42913;DHT22;50720;54.324;18.558;2023-04-03T02:31:31;1.80;99.90
42913;DHT22;50720;54.324;18.558;2023-04-03T02:34:03;1.80;99.90
42913;DHT22;50720;54.324;18.558;2023-04-03T02:36:33;1.90;99.90
42913;DHT22;50720;54.324;18.558;2023-04-03T02:39:03;1.90;99.90
42913;DHT22;50720;54.324;18.558;2023-04-03T02:41:33;1.90;99.90
42913;DHT22;50720;54.324;18.558;2023-04-03T02:44:04;1.90;99.90
42913;DHT22;50720;54.324;18.558;2023-04-03T02:46:34;1.90;99.90
42913;DHT22;50720;54.324;18.558;2023-04-03T02:49:05;1.90;99.90
42913;DHT22;50720;54.324;18.558;2023-04-03T02:51:35;1.90;99.90
42913;DHT22;50720;54.324;18.558;2023-04-03T02:54:04;1.90;99.90
42913;DHT22;50720;54.324;18.558;2023-04-03T02:56:35;1.90;99.90
42913;DHT22;50720;54.324;18.558;2023-04-03T02:59:04;1.90;99.90
42913;DHT22;50720;54.324;18.558;2023-04-03T03:01:34;1.90;99.90
42913;DHT22;50720;54.324;18.558;2023-04-03T03:04:06;2.00;99.90
42913;DHT22;50720;54.324;18.558;2023-04-03T03:06:36;1.90;99.90
42913;DHT22;50720;54.324;18.558;2023-04-03T03:09:06;1.90;99.90
42913;DHT22;50720;54.324;18.558;2023-04-03T03:11:36;1.90;99.90
42913;DHT22;50720;54.324;18.558;2023-04-03T03:14:06;2.00;99.90
42913;DHT22;50720;54.324;18.558;2023-04-03T03:16:36;2.00;99.90
42913;DHT22;50720;54.324;18.558;2023-04-03T03:19:07;2.00;99.90
42913;DHT22;50720;54.324;18.558;2023-04-03T03:21:38;2.00;99.90
42913;DHT22;50720;54.324;18.558;2023-04-03T03:24:08;2.00;99.90
42913;DHT22;50720;54.324;18.558;2023-04-03T03:26:40;1.90;99.90
42913;DHT22;50720;54.324;18.558;2023-04-03T03:29:09;2.00;99.90
42913;DHT22;50720;54.324;18.558;2023-04-03T03:31:39;2.00;99.90
42913;DHT22;50720;54.324;18.558;2023-04-03T03:34:10;2.00;99.90
42913;DHT22;50720;54.324;18.558;2023-04-03T03:36:40;2.00;99.90
42913;DHT22;50720;54.324;18.558;2023-04-03T03:39:10;2.00;99.90
42913;DHT22;50720;54.324;18.558;2023-04-03T03:41:40;2.00;99.90
42913;DHT22;50720;54.324;18.558;2023-04-03T03:44:09;2.00;99.90
42913;DHT22;50720;54.324;18.558;2023-04-03T03:46:41;2.00;99.90
42913;DHT22;50720;54.324;18.558;2023-04-03T03:49:12;2.00;99.90
42913;DHT22;50720;54.324;18.558;2023-04-03T03:51:42;2.00;99.90
42913;DHT22;50720;54.324;18.558;2023-04-03T03:54:12;2.00;99.90
42913;DHT22;50720;54.324;18.558;2023-04-03T03:56:41;2.00;99.90
42913;DHT22;50720;54.324;18.558;2023-04-03T03:59:12;2.00;99.90
42913;DHT22;50720;54.324;18.558;2023-04-03T04:01:42;2.00;99.90
42913;DHT22;50720;54.324;18.558;2023-04-03T04:04:13;2.00;99.90
42913;DHT22;50720;54.324;18.558;2023-04-03T04:06:43;2.00;99.90
42913;DHT22;50720;54.324;18.558;2023-04-03T04:09:12;2.00;99.90
42913;DHT22;50720;54.324;18.558;2023-04-03T04:11:42;2.00;99.90
42913;DHT22;50720;54.324;18.558;2023-04-03T04:14:12;1.90;99.90
42913;DHT22;50720;54.324;18.558;2023-04-03T04:16:42;1.90;99.90
42913;DHT22;50720;54.324;18.558;2023-04-03T04:19:13;1.90;99.90
42913;DHT22;50720;54.324;18.558;2023-04-03T04:21:43;2.00;99.90
42913;DHT22;50720;54.324;18.558;2023-04-03T04:24:13;1.90;99.90
42913;DHT22;50720;54.324;18.558;2023-04-03T04:26:43;1.90;99.90
42913;DHT22;50720;54.324;18.558;2023-04-03T04:29:13;1.90;99.90
42913;DHT22;50720;54.324;18.558;2023-04-03T04:31:43;1.90;99.90
42913;DHT22;50720;54.324;18.558;2023-04-03T04:34:14;1.90;99.90
42913;DHT22;50720;54.324;18.558;2023-04-03T04:36:44;1.90;99.90
42913;DHT22;50720;54.324;18.558;2023-04-03T04:39:14;1.90;99.90
42913;DHT22;50720;54.324;18.558;2023-04-03T04:41:44;1.90;99.90
42913;DHT22;50720;54.324;18.558;2023-04-03T04:44:13;1.90;99.90
42913;DHT22;50720;54.324;18.558;2023-04-03T04:46:43;1.90;99.90
42913;DHT22;50720;54.324;18.558;2023-04-03T04:49:15;1.90;99.90
42913;DHT22;50720;54.324;18.558;2023-04-03T04:51:45;1.90;99.90
42913;DHT22;50720;54.324;18.558;2023-04-03T04:54:19;1.90;99.90
42913;DHT22;50720;54.324;18.558;2023-04-03T04:56:48;1.80;99.90
42913;DHT22;50720;54.324;18.558;2023-04-03T04:59:18;1.80;99.90
42913;DHT22;50720;54.324;18.558;2023-04-03T05:01:49;1.90;99.90
42913;DHT22;50720;54.324;18.558;2023-04-03T05:04:20;1.90;99.90
42913;DHT22;50720;54.324;18.558;2023-04-03T05:06:50;1.90;99.90
42913;DHT22;50720;54.324;18.558;2023-04-03T05:09:19;1.90;99.90
42913;DHT22;50720;54.324;18.558;2023-04-03T05:11:49;1.90;99.90
42913;DHT22;50720;54.324;18.558;2023-04-03T05:14:19;2.00;99.90
42913;DHT22;50720;54.324;18.558;2023-04-03T05:16:49;1.90;99.90
42913;DHT22;50720;54.324;18.558;2023-04-03T05:19:22;1.90;99.90
42913;DHT22;50720;54.324;18.558;2023-04-03T05:21:52;2.00;99.90
42913;DHT22;50720;54.324;18.558;2023-04-03T05:24:22;1.90;99.90
42913;DHT22;50720;54.324;18.558;2023-04-03T05:26:54;1.90;99.90
42913;DHT22;50720;54.324;18.558;2023-04-03T05:29:24;1.90;99.90
42913;DHT22;50720;54.324;18.558;2023-04-03T05:31:54;1.90;99.90
42913;DHT22;50720;54.324;18.558;2023-04-03T05:34:25;2.00;99.90
42913;DHT22;50720;54.324;18.558;2023-04-03T05:36:55;2.00;99.90
42913;DHT22;50720;54.324;18.558;2023-04-03T05:39:24;2.00;99.90
42913;DHT22;50720;54.324;18.558;2023-04-03T05:41:54;2.00;99.90
42913;DHT22;50720;54.324;18.558;2023-04-03T05:44:23;2.00;99.90
42913;DHT22;50720;54.324;18.558;2023-04-03T05:46:54;2.10;99.90
42913;DHT22;50720;54.324;18.558;2023-04-03T05:49:25;2.10;99.90
42913;DHT22;50720;54.324;18.558;2023-04-03T05:51:55;2.10;99.90
42913;DHT22;50720;54.324;18.558;2023-04-03T05:54:25;2.20;99.90
42913;DHT22;50720;54.324;18.558;2023-04-03T05:56:56;2.20;99.90
42913;DHT22;50720;54.324;18.558;2023-04-03T05:59:26;2.20;99.90
42913;DHT22;50720;54.324;18.558;2023-04-03T06:01:56;2.10;99.90
42913;DHT22;50720;54.324;18.558;2023-04-03T06:04:27;2.20;99.90
42913;DHT22;50720;54.324;18.558;2023-04-03T06:06:57;2.10;99.90
42913;DHT22;50720;54.324;18.558;2023-04-03T06:09:27;2.00;99.90
42913;DHT22;50720;54.324;18.558;2023-04-03T06:11:58;2.00;99.90
42913;DHT22;50720;54.324;18.558;2023-04-03T06:14:28;2.10;99.90
42913;DHT22;50720;54.324;18.558;2023-04-03T06:16:58;2.20;99.90
42913;DHT22;50720;54.324;18.558;2023-04-03T06:19:30;2.30;99.90
42913;DHT22;50720;54.324;18.558;2023-04-03T06:22:00;2.50;99.90
42913;DHT22;50720;54.324;18.558;2023-04-03T06:24:31;2.60;99.90
42913;DHT22;50720;54.324;18.558;2023-04-03T06:27:01;2.50;99.90
42913;DHT22;50720;54.324;18.558;2023-04-03T06:29:30;2.40;99.90
42913;DHT22;50720;54.324;18.558;2023-04-03T06:32:00;2.40;99.90
42913;DHT22;50720;54.324;18.558;2023-04-03T06:34:31;2.50;99.90
42913;DHT22;50720;54.324;18.558;2023-04-03T06:37:02;2.60;99.90
42913;DHT22;50720;54.324;18.558;2023-04-03T06:39:31;2.70;99.90
42913;DHT22;50720;54.324;18.558;2023-04-03T06:42:02;2.80;99.90
42913;DHT22;50720;54.324;18.558;2023-04-03T06:44:31;3.00;99.90
42913;DHT22;50720;54.324;18.558;2023-04-03T06:47:03;3.10;99.90
42913;DHT22;50720;54.324;18.558;2023-04-03T06:49:34;3.00;99.90
42913;DHT22;50720;54.324;18.558;2023-04-03T06:52:05;2.90;99.90
42913;DHT22;50720;54.324;18.558;2023-04-03T06:54:34;2.90;99.90
42913;DHT22;50720;54.324;18.558;2023-04-03T06:57:04;2.80;99.90
42913;DHT22;50720;54.324;18.558;2023-04-03T06:59:34;2.70;99.90
42913;DHT22;50720;54.324;18.558;2023-04-03T07:02:05;2.70;99.90
42913;DHT22;50720;54.324;18.558;2023-04-03T07:04:36;2.70;99.90
42913;DHT22;50720;54.324;18.558;2023-04-03T07:07:06;2.70;99.90
42913;DHT22;50720;54.324;18.558;2023-04-03T07:09:36;2.70;99.90
42913;DHT22;50720;54.324;18.558;2023-04-03T07:12:07;2.80;99.90
42913;DHT22;50720;54.324;18.558;2023-04-03T07:14:36;2.90;99.90
42913;DHT22;50720;54.324;18.558;2023-04-03T07:17:06;2.90;99.90
42913;DHT22;50720;54.324;18.558;2023-04-03T07:19:37;2.90;99.90
42913;DHT22;50720;54.324;18.558;2023-04-03T07:22:08;2.80;99.90
42913;DHT22;50720;54.324;18.558;2023-04-03T07:24:38;2.80;99.90
42913;DHT22;50720;54.324;18.558;2023-04-03T07:27:09;2.80;99.90
42913;DHT22;50720;54.324;18.558;2023-04-03T07:29:40;2.90;99.90
42913;DHT22;50720;54.324;18.558;2023-04-03T07:32:10;3.10;99.90
42913;DHT22;50720;54.324;18.558;2023-04-03T07:34:41;3.30;99.90
42913;DHT22;50720;54.324;18.558;2023-04-03T07:37:11;3.20;99.90
42913;DHT22;50720;54.324;18.558;2023-04-03T07:39:43;3.30;99.90
42913;DHT22;50720;54.324;18.558;2023-04-03T07:42:13;3.30;99.90
42913;DHT22;50720;54.324;18.558;2023-04-03T07:44:43;3.40;99.90
42913;DHT22;50720;54.324;18.558;2023-04-03T07:47:13;3.30;99.90
42913;DHT22;50720;54.324;18.558;2023-04-03T07:49:45;3.20;99.90
42913;DHT22;50720;54.324;18.558;2023-04-03T07:52:15;3.10;99.90
42913;DHT22;50720;54.324;18.558;2023-04-03T07:54:45;3.30;99.90
42913;DHT22;50720;54.324;18.558;2023-04-03T07:57:15;3.40;99.90
42913;DHT22;50720;54.324;18.558;2023-04-03T07:59:44;3.50;99.90
42913;DHT22;50720;54.324;18.558;2023-04-03T08:02:15;3.40;99.90
42913;DHT22;50720;54.324;18.558;2023-04-03T08:04:46;3.40;99.90
42913;DHT22;50720;54.324;18.558;2023-04-03T08:07:16;3.50;99.90
42913;DHT22;50720;54.324;18.558;2023-04-03T08:09:45;3.40;99.90
42913;DHT22;50720;54.324;18.558;2023-04-03T08:12:15;3.40;99.90
42913;DHT22;50720;54.324;18.558;2023-04-03T08:14:45;3.20;99.90
42913;DHT22;50720;54.324;18.558;2023-04-03T08:17:14;3.10;99.90
42913;DHT22;50720;54.324;18.558;2023-04-03T08:19:45;3.20;99.90
42913;DHT22;50720;54.324;18.558;2023-04-03T08:22:15;3.40;99.90
42913;DHT22;50720;54.324;18.558;2023-04-03T08:24:45;3.60;99.90
42913;DHT22;50720;54.324;18.558;2023-04-03T08:27:26;3.60;99.90
42913;DHT22;50720;54.324;18.558;2023-04-03T08:29:56;3.70;99.90
42913;DHT22;50720;54.324;18.558;2023-04-03T08:32:26;3.70;99.90
42913;DHT22;50720;54.324;18.558;2023-04-03T08:34:57;3.70;99.90
42913;DHT22;50720;54.324;18.558;2023-04-03T08:37:26;3.50;99.90
42913;DHT22;50720;54.324;18.558;2023-04-03T08:39:56;3.50;99.90
42913;DHT22;50720;54.324;18.558;2023-04-03T08:42:39;3.60;99.90
42913;DHT22;50720;54.324;18.558;2023-04-03T08:45:13;3.80;99.90
42913;DHT22;50720;54.324;18.558;2023-04-03T08:47:48;3.80;99.90
42913;DHT22;50720;54.324;18.558;2023-04-03T08:50:28;3.90;99.90
42913;DHT22;50720;54.324;18.558;2023-04-03T08:53:02;4.00;99.90
42913;DHT22;50720;54.324;18.558;2023-04-03T08:55:37;4.30;99.90
42913;DHT22;50720;54.324;18.558;2023-04-03T08:58:12;4.40;99.90
42913;DHT22;50720;54.324;18.558;2023-04-03T09:00:45;4.40;99.90
42913;DHT22;50720;54.324;18.558;2023-04-03T09:03:17;4.50;99.90
42913;DHT22;50720;54.324;18.558;2023-04-03T09:05:53;4.50;99.90
42913;DHT22;50720;54.324;18.558;2023-04-03T09:08:26;4.60;99.90
42913;DHT22;50720;54.324;18.558;2023-04-03T09:11:07;4.60;99.90
42913;DHT22;50720;54.324;18.558;2023-04-03T09:13:44;4.40;99.90
42913;DHT22;50720;54.324;18.558;2023-04-03T09:16:24;4.30;99.90
42913;DHT22;50720;54.324;18.558;2023-04-03T09:19:00;4.30;99.90
42913;DHT22;50720;54.324;18.558;2023-04-03T09:21:37;4.50;99.90
42913;DHT22;50720;54.324;18.558;2023-04-03T09:24:12;4.30;99.90
42913;DHT22;50720;54.324;18.558;2023-04-03T09:26:44;4.30;99.90
42913;DHT22;50720;54.324;18.558;2023-04-03T09:29:18;4.20;99.90
42913;DHT22;50720;54.324;18.558;2023-04-03T09:31:50;4.30;99.90
42913;DHT22;50720;54.324;18.558;2023-04-03T09:34:24;4.40;99.90
42913;DHT22;50720;54.324;18.558;2023-04-03T09:36:57;4.20;99.90
42913;DHT22;50720;54.324;18.558;2023-04-03T09:39:28;4.40;99.90
42913;DHT22;50720;54.324;18.558;2023-04-03T09:42:00;4.60;99.90
42913;DHT22;50720;54.324;18.558;2023-04-03T09:44:31;4.70;99.90
42913;DHT22;50720;54.324;18.558;2023-04-03T09:47:21;4.70;99.90
42913;DHT22;50720;54.324;18.558;2023-04-03T09:50:13;4.50;99.90
42913;DHT22;50720;54.324;18.558;2023-04-03T09:52:47;4.50;99.90
42913;DHT22;50720;54.324;18.558;2023-04-03T09:55:19;4.40;99.90
42913;DHT22;50720;54.324;18.558;2023-04-03T09:57:50;4.50;99.90
42913;DHT22;50720;54.324;18.558;2023-04-03T10:00:22;4.40;99.90
42913;DHT22;50720;54.324;18.558;2023-04-03T10:02:51;4.40;99.90
42913;DHT22;50720;54.324;18.558;2023-04-03T10:05:34;4.60;99.90
42913;DHT22;50720;54.324;18.558;2023-04-03T10:08:15;4.70;99.90
42913;DHT22;50720;54.324;18.558;2023-04-03T10:11:06;4.90;99.90
42913;DHT22;50720;54.324;18.558;2023-04-03T10:13:50;4.90;99.90
42913;DHT22;50720;54.324;18.558;2023-04-03T10:16:34;5.10;99.90
42913;DHT22;50720;54.324;18.558;2023-04-03T10:19:33;5.10;99.90
42913;DHT22;50720;54.324;18.558;2023-04-03T10:22:10;4.90;99.90
42913;DHT22;50720;54.324;18.558;2023-04-03T10:24:51;4.80;99.90
42913;DHT22;50720;54.324;18.558;2023-04-03T10:27:30;4.60;99.90
42913;DHT22;50720;54.324;18.558;2023-04-03T10:30:15;4.50;99.90
42913;DHT22;50720;54.324;18.558;2023-04-03T10:32:58;4.20;99.90
42913;DHT22;50720;54.324;18.558;2023-04-03T10:35:42;4.20;99.90
42913;DHT22;50720;54.324;18.558;2023-04-03T10:38:19;4.10;99.90
42913;DHT22;50720;54.324;18.558;2023-04-03T10:40:57;4.00;99.90
42913;DHT22;50720;54.324;18.558;2023-04-03T10:43:36;4.20;99.90
42913;DHT22;50720;54.324;18.558;2023-04-03T10:46:13;4.30;99.90
42913;DHT22;50720;54.324;18.558;2023-04-03T10:51:43;4.60;99.90
42913;DHT22;50720;54.324;18.558;2023-04-03T10:54:20;4.60;99.90
42913;DHT22;50720;54.324;18.558;2023-04-03T10:56:54;4.70;99.90
42913;DHT22;50720;54.324;18.558;2023-04-03T10:59:43;4.70;99.90
42913;DHT22;50720;54.324;18.558;2023-04-03T11:02:18;4.50;99.90
42913;DHT22;50720;54.324;18.558;2023-04-03T11:04:56;4.70;99.90
42913;DHT22;50720;54.324;18.558;2023-04-03T11:07:32;5.00;99.90
42913;DHT22;50720;54.324;18.558;2023-04-03T11:10:10;5.20;99.90
42913;DHT22;50720;54.324;18.558;2023-04-03T11:12:46;4.90;99.90
42913;DHT22;50720;54.324;18.558;2023-04-03T11:15:19;4.80;99.90
42913;DHT22;50720;54.324;18.558;2023-04-03T11:17:53;4.70;99.90
42913;DHT22;50720;54.324;18.558;2023-04-03T11:20:27;4.60;99.90
42913;DHT22;50720;54.324;18.558;2023-04-03T11:23:02;4.80;99.90
42913;DHT22;50720;54.324;18.558;2023-04-03T11:25:34;5.30;99.90
42913;DHT22;50720;54.324;18.558;2023-04-03T11:28:12;5.50;99.90
42913;DHT22;50720;54.324;18.558;2023-04-03T11:30:47;5.30;99.90
42913;DHT22;50720;54.324;18.558;2023-04-03T11:33:31;5.30;99.90
42913;DHT22;50720;54.324;18.558;2023-04-03T11:36:06;6.10;99.90
42913;DHT22;50720;54.324;18.558;2023-04-03T11:38:56;6.00;99.90
42913;DHT22;50720;54.324;18.558;2023-04-03T11:41:29;6.70;99.90
42913;DHT22;50720;54.324;18.558;2023-04-03T11:44:02;7.20;99.90
42913;DHT22;50720;54.324;18.558;2023-04-03T11:46:53;7.40;99.90
42913;DHT22;50720;54.324;18.558;2023-04-03T11:49:50;7.80;99.90
42913;DHT22;50720;54.324;18.558;2023-04-03T11:52:55;6.60;99.90
42913;DHT22;50720;54.324;18.558;2023-04-03T11:58:31;5.30;99.90
42913;DHT22;50720;54.324;18.558;2023-04-03T12:01:08;5.70;99.90
42913;DHT22;50720;54.324;18.558;2023-04-03T12:04:05;6.30;99.90
42913;DHT22;50720;54.324;18.558;2023-04-03T12:09:58;5.90;99.90
42913;DHT22;50720;54.324;18.558;2023-04-03T12:12:30;6.30;99.90
42913;DHT22;50720;54.324;18.558;2023-04-03T12:18:48;7.20;99.90
42913;DHT22;50720;54.324;18.558;2023-04-03T12:21:24;8.10;99.90
42913;DHT22;50720;54.324;18.558;2023-04-03T12:24:25;8.70;99.90
42913;DHT22;50720;54.324;18.558;2023-04-03T12:27:15;9.10;97.40
42913;DHT22;50720;54.324;18.558;2023-04-03T12:29:49;8.20;98.10
42913;DHT22;50720;54.324;18.558;2023-04-03T12:32:34;7.70;99.70
42913;DHT22;50720;54.324;18.558;2023-04-03T12:35:20;7.80;99.90
42913;DHT22;50720;54.324;18.558;2023-04-03T12:41:10;8.30;97.60
42913;DHT22;50720;54.324;18.558;2023-04-03T12:43:55;7.70;98.40
42913;DHT22;50720;54.324;18.558;2023-04-03T12:46:35;7.90;98.50
42913;DHT22;50720;54.324;18.558;2023-04-03T12:49:26;8.00;98.10
42913;DHT22;50720;54.324;18.558;2023-04-03T12:52:03;7.40;98.20
42913;DHT22;50720;54.324;18.558;2023-04-03T12:54:36;7.30;99.20
42913;DHT22;50720;54.324;18.558;2023-04-03T12:57:11;6.90;99.90
42913;DHT22;50720;54.324;18.558;2023-04-03T12:59:42;6.30;99.70
42913;DHT22;50720;54.324;18.558;2023-04-03T13:02:22;6.50;99.90
42913;DHT22;50720;54.324;18.558;2023-04-03T13:04:53;6.50;99.90
42913;DHT22;50720;54.324;18.558;2023-04-03T13:07:29;6.90;99.90
42913;DHT22;50720;54.324;18.558;2023-04-03T13:10:13;6.70;99.90
42913;DHT22;50720;54.324;18.558;2023-04-03T13:12:49;7.30;99.90
42913;DHT22;50720;54.324;18.558;2023-04-03T13:15:20;7.80;99.90
42913;DHT22;50720;54.324;18.558;2023-04-03T13:17:51;7.80;99.20
42913;DHT22;50720;54.324;18.558;2023-04-03T13:20:24;8.10;99.90
42913;DHT22;50720;54.324;18.558;2023-04-03T13:22:58;9.00;99.50
42913;DHT22;50720;54.324;18.558;2023-04-03T13:25:31;9.40;98.50
42913;DHT22;50720;54.324;18.558;2023-04-03T13:28:03;9.10;99.00
42913;DHT22;50720;54.324;18.558;2023-04-03T13:30:49;8.50;99.90
42913;DHT22;50720;54.324;18.558;2023-04-03T13:33:26;7.20;99.90
42913;DHT22;50720;54.324;18.558;2023-04-03T13:36:15;6.10;99.90
42913;DHT22;50720;54.324;18.558;2023-04-03T13:38:58;5.20;99.90
42913;DHT22;50720;54.324;18.558;2023-04-03T13:41:30;5.20;99.90
42913;DHT22;50720;54.324;18.558;2023-04-03T13:44:31;5.70;99.90
42913;DHT22;50720;54.324;18.558;2023-04-03T13:47:16;6.80;99.90
42913;DHT22;50720;54.324;18.558;2023-04-03T13:50:00;7.70;99.90
42913;DHT22;50720;54.324;18.558;2023-04-03T13:52:33;8.00;99.90
42913;DHT22;50720;54.324;18.558;2023-04-03T13:55:16;8.10;99.90
42913;DHT22;50720;54.324;18.558;2023-04-03T13:57:56;7.30;99.90
42913;DHT22;50720;54.324;18.558;2023-04-03T14:00:33;6.20;99.90
42913;DHT22;50720;54.324;18.558;2023-04-03T14:03:11;6.00;99.90
42913;DHT22;50720;54.324;18.558;2023-04-03T14:05:41;6.60;99.90
42913;DHT22;50720;54.324;18.558;2023-04-03T14:08:13;6.80;99.90
42913;DHT22;50720;54.324;18.558;2023-04-03T14:10:46;6.10;99.90
42913;DHT22;50720;54.324;18.558;2023-04-03T14:13:19;5.80;99.90
42913;DHT22;50720;54.324;18.558;2023-04-03T14:15:49;6.40;99.90
42913;DHT22;50720;54.324;18.558;2023-04-03T14:18:21;7.00;99.90
42913;DHT22;50720;54.324;18.558;2023-04-03T14:20:51;7.90;99.90
42913;DHT22;50720;54.324;18.558;2023-04-03T14:23:21;8.50;98.70
42913;DHT22;50720;54.324;18.558;2023-04-03T14:25:52;8.40;97.60
42913;DHT22;50720;54.324;18.558;2023-04-03T14:28:23;7.80;98.20
42913;DHT22;50720;54.324;18.558;2023-04-03T14:30:53;6.90;99.00
42913;DHT22;50720;54.324;18.558;2023-04-03T14:33:23;6.40;99.90
42913;DHT22;50720;54.324;18.558;2023-04-03T14:35:54;6.00;99.90
42913;DHT22;50720;54.324;18.558;2023-04-03T14:38:26;6.20;99.90
42913;DHT22;50720;54.324;18.558;2023-04-03T14:40:58;7.10;99.70
42913;DHT22;50720;54.324;18.558;2023-04-03T14:43:43;7.70;97.30
42913;DHT22;50720;54.324;18.558;2023-04-03T14:46:15;7.80;95.40
42913;DHT22;50720;54.324;18.558;2023-04-03T14:48:46;7.70;95.70
42913;DHT22;50720;54.324;18.558;2023-04-03T14:51:16;7.30;97.40
42913;DHT22;50720;54.324;18.558;2023-04-03T14:53:46;7.00;98.50
42913;DHT22;50720;54.324;18.558;2023-04-03T14:56:19;6.30;99.90
42913;DHT22;50720;54.324;18.558;2023-04-03T14:58:54;6.20;99.90
42913;DHT22;50720;54.324;18.558;2023-04-03T15:01:24;5.70;99.90
42913;DHT22;50720;54.324;18.558;2023-04-03T15:03:54;5.00;99.90
42913;DHT22;50720;54.324;18.558;2023-04-03T15:06:25;4.80;99.90
42913;DHT22;50720;54.324;18.558;2023-04-03T15:08:55;4.60;99.90
42913;DHT22;50720;54.324;18.558;2023-04-03T15:11:26;4.60;99.90
42913;DHT22;50720;54.324;18.558;2023-04-03T15:13:56;4.60;99.90
42913;DHT22;50720;54.324;18.558;2023-04-03T15:16:28;4.50;99.90
42913;DHT22;50720;54.324;18.558;2023-04-03T15:18:58;4.50;99.90
42913;DHT22;50720;54.324;18.558;2023-04-03T15:21:28;4.40;99.90
42913;DHT22;50720;54.324;18.558;2023-04-03T15:23:57;4.20;99.90
42913;DHT22;50720;54.324;18.558;2023-04-03T15:26:30;3.90;99.90
42913;DHT22;50720;54.324;18.558;2023-04-03T15:29:01;4.00;99.90
42913;DHT22;50720;54.324;18.558;2023-04-03T15:31:31;4.40;99.90
42913;DHT22;50720;54.324;18.558;2023-04-03T15:34:03;4.90;99.90
42913;DHT22;50720;54.324;18.558;2023-04-03T15:36:32;5.50;99.90
42913;DHT22;50720;54.324;18.558;2023-04-03T15:39:03;5.80;99.90
42913;DHT22;50720;54.324;18.558;2023-04-03T15:41:34;5.90;99.90
42913;DHT22;50720;54.324;18.558;2023-04-03T15:44:04;5.40;99.90
42913;DHT22;50720;54.324;18.558;2023-04-03T15:46:33;4.80;99.90
42913;DHT22;50720;54.324;18.558;2023-04-03T15:49:04;4.40;99.90
42913;DHT22;50720;54.324;18.558;2023-04-03T15:51:33;4.00;99.90
42913;DHT22;50720;54.324;18.558;2023-04-03T15:54:04;3.80;99.90
42913;DHT22;50720;54.324;18.558;2023-04-03T15:56:35;3.50;99.90
42913;DHT22;50720;54.324;18.558;2023-04-03T15:59:04;3.40;99.90
42913;DHT22;50720;54.324;18.558;2023-04-03T16:01:33;3.30;99.90
42913;DHT22;50720;54.324;18.558;2023-04-03T16:04:04;3.20;99.90
42913;DHT22;50720;54.324;18.558;2023-04-03T16:06:34;3.20;99.90
42913;DHT22;50720;54.324;18.558;2023-04-03T16:09:04;3.20;99.90
42913;DHT22;50720;54.324;18.558;2023-04-03T16:11:36;3.20;99.90
42913;DHT22;50720;54.324;18.558;2023-04-03T16:14:08;3.00;99.90
42913;DHT22;50720;54.324;18.558;2023-04-03T16:16:38;3.10;99.90
42913;DHT22;50720;54.324;18.558;2023-04-03T16:19:09;2.90;99.90
42913;DHT22;50720;54.324;18.558;2023-04-03T16:21:39;2.90;99.90
42913;DHT22;50720;54.324;18.558;2023-04-03T16:24:09;2.90;99.90
42913;DHT22;50720;54.324;18.558;2023-04-03T16:26:40;2.80;99.90